Time;durP1;ratioP1;P1;durP2;ratioP2;P2;SDS_P1;SDS_P2;PMS_P1;PMS_P2;Temp;Humidity;BMP_temperature;BMP_pressure;BME280_temperature;BME280_humidity;BME280_pressure;Samples;Min_cycle;Max_cycle;Signal;HPM_P1;HPM_P2
2023/07/28 00:01:11;;;;;;;;;;;25.70;54.00;;;;;;5046717;28;43044;-78
2023/07/28 00:03:37;;;;;;;;;;;25.70;54.00;;;;;;5046548;28;43034;-80
2023/07/28 00:06:02;;;;;;;;;;;25.70;54.50;;;;;;5047199;28;43055;-81
2023/07/28 00:08:28;;;;;;;;;;;25.70;53.80;;;;;;5026670;28;43862;-81
2023/07/28 00:10:53;;;;;;;;;;;25.70;54.00;;;;;;5046523;28;43097;-80
2023/07/28 00:13:19;;;;;;;;;;;25.70;53.90;;;;;;5045601;28;42920;-81
2023/07/28 00:15:44;;;;;;;;;;;25.70;53.90;;;;;;5046072;28;43130;-82
2023/07/28 00:18:10;;;;;;;;;;;25.70;53.80;;;;;;5046936;28;43478;-78
2023/07/28 00:20:35;;;;;;;;;;;25.70;53.70;;;;;;5047112;28;42980;-81
2023/07/28 00:23:01;;;;;;;;;;;25.80;53.80;;;;;;5045704;28;42967;-79
2023/07/28 00:25:26;;;;;;;;;;;25.70;53.80;;;;;;5045742;28;43037;-79
2023/07/28 00:27:52;;;;;;;;;;;25.70;53.80;;;;;;5044805;28;45423;-81
2023/07/28 00:30:17;;;;;;;;;;;25.70;53.80;;;;;;5046094;28;43016;-78
2023/07/28 00:32:43;;;;;;;;;;;25.70;53.80;;;;;;5046666;28;43009;-82
2023/07/28 00:35:08;;;;;;;;;;;25.70;53.80;;;;;;5046145;28;43019;-81
2023/07/28 00:37:34;;;;;;;;;;;25.70;54.30;;;;;;5045970;28;42921;-80
2023/07/28 00:39:59;;;;;;;;;;;25.70;53.80;;;;;;5044886;28;42994;-80
2023/07/28 00:42:25;;;;;;;;;;;25.70;53.80;;;;;;5045936;28;42961;-81
2023/07/28 00:44:50;;;;;;;;;;;25.60;53.80;;;;;;5045830;28;42908;-78
2023/07/28 00:47:16;;;;;;;;;;;25.70;53.90;;;;;;5046200;28;44052;-82
2023/07/28 00:49:41;;;;;;;;;;;25.60;53.90;;;;;;5045819;28;43259;-79
2023/07/28 00:52:07;;;;;;;;;;;25.60;54.10;;;;;;5046137;28;42792;-81
2023/07/28 00:54:33;;;;;;;;;;;25.60;54.10;;;;;;5046153;28;42954;-82
2023/07/28 00:56:59;;;;;;;;;;;25.60;54.20;;;;;;5046439;28;42900;-81
2023/07/28 00:59:25;;;;;;;;;;;25.60;54.20;;;;;;5045784;28;43040;-79
2023/07/28 01:01:50;;;;;;;;;;;25.60;54.30;;;;;;5045655;28;43457;-81
2023/07/28 01:04:16;;;;;;;;;;;25.60;54.20;;;;;;5045728;28;43011;-80
2023/07/28 01:06:53;;;;;;;;;;;25.60;54.40;;;;;;5045377;28;43063;-81
2023/07/28 01:09:20;;;;;;;;;;;25.60;54.20;;;;;;5045320;28;43170;-81
2023/07/28 01:11:53;;;;;;;;;;;25.60;54.20;;;;;;5045330;28;43473;-81
2023/07/28 01:14:18;;;;;;;;;;;25.60;54.10;;;;;;5044969;28;43294;-81
2023/07/28 01:16:44;;;;;;;;;;;25.60;54.20;;;;;;5045179;28;43681;-78
2023/07/28 01:19:10;;;;;;;;;;;25.60;54.20;;;;;;5045547;28;42892;-80
2023/07/28 01:21:36;;;;;;;;;;;25.60;54.30;;;;;;5045811;28;43731;-80
2023/07/28 01:24:20;;;;;;;;;;;25.60;54.40;;;;;;5046016;28;42987;-82
2023/07/28 01:26:45;;;;;;;;;;;25.60;54.40;;;;;;5035244;28;43121;-80
2023/07/28 01:29:12;;;;;;;;;;;25.60;54.40;;;;;;5045874;28;42868;-82
2023/07/28 01:31:39;;;;;;;;;;;25.60;54.40;;;;;;5032115;28;43228;-78
2023/07/28 01:34:04;;;;;;;;;;;25.60;54.40;;;;;;5045262;28;42929;-78
2023/07/28 01:36:30;;;;;;;;;;;25.60;54.40;;;;;;5045022;28;43719;-80
2023/07/28 01:38:55;;;;;;;;;;;25.60;54.50;;;;;;5045481;28;42943;-82
2023/07/28 01:41:21;;;;;;;;;;;25.60;54.40;;;;;;5045871;28;42931;-82
2023/07/28 01:43:46;;;;;;;;;;;25.50;54.30;;;;;;5045148;28;43407;-82
2023/07/28 01:46:12;;;;;;;;;;;25.50;54.30;;;;;;5045023;28;43640;-82
2023/07/28 01:48:37;;;;;;;;;;;25.50;54.30;;;;;;5044821;28;42927;-80
2023/07/28 01:51:03;;;;;;;;;;;25.50;54.10;;;;;;5044753;28;42983;-82
2023/07/28 01:53:29;;;;;;;;;;;25.50;54.20;;;;;;5044789;28;43222;-79
2023/07/28 01:55:54;;;;;;;;;;;25.50;54.30;;;;;;5043335;28;45342;-81
2023/07/28 01:58:19;;;;;;;;;;;25.50;54.20;;;;;;5042789;28;43001;-81
2023/07/28 02:00:47;;;;;;;;;;;25.50;54.20;;;;;;5043227;28;64263;-81
2023/07/28 02:03:12;;;;;;;;;;;25.60;54.30;;;;;;5044977;28;43164;-79
2023/07/28 02:05:38;;;;;;;;;;;25.50;54.10;;;;;;5044776;28;43518;-81
2023/07/28 02:08:03;;;;;;;;;;;25.50;54.20;;;;;;5044708;28;43042;-80
2023/07/28 02:10:30;;;;;;;;;;;25.60;54.30;;;;;;5044937;28;43065;-78
2023/07/28 02:12:55;;;;;;;;;;;25.50;54.20;;;;;;5044972;28;42924;-79
2023/07/28 02:15:21;;;;;;;;;;;25.50;54.10;;;;;;5044435;28;43594;-79
2023/07/28 02:17:46;;;;;;;;;;;25.50;54.20;;;;;;5044616;28;43022;-81
2023/07/28 02:20:12;;;;;;;;;;;25.50;54.30;;;;;;5041789;28;43549;-79
2023/07/28 02:22:42;;;;;;;;;;;25.50;54.20;;;;;;5044503;28;42991;-81
2023/07/28 02:25:08;;;;;;;;;;;25.50;54.20;;;;;;5044712;28;42943;-79
2023/07/28 02:27:33;;;;;;;;;;;25.50;54.30;;;;;;5044496;28;43215;-81
2023/07/28 02:29:59;;;;;;;;;;;25.50;54.30;;;;;;5044035;28;43543;-81
2023/07/28 02:32:25;;;;;;;;;;;25.50;54.10;;;;;;5044315;28;43180;-80
2023/07/28 02:34:51;;;;;;;;;;;25.60;54.10;;;;;;5044884;28;42890;-81
2023/07/28 02:37:16;;;;;;;;;;;25.60;54.20;;;;;;5044362;28;42968;-80
2023/07/28 02:39:42;;;;;;;;;;;25.60;54.10;;;;;;5044733;28;43314;-80
2023/07/28 02:42:07;;;;;;;;;;;25.50;54.00;;;;;;5044236;28;43157;-81
2023/07/28 02:44:33;;;;;;;;;;;25.50;53.90;;;;;;5044060;28;42875;-82
2023/07/28 02:46:58;;;;;;;;;;;25.50;54.00;;;;;;5043905;28;42985;-81
2023/07/28 02:49:24;;;;;;;;;;;25.50;54.00;;;;;;5044668;28;43602;-79
2023/07/28 02:51:49;;;;;;;;;;;25.50;54.10;;;;;;5044380;28;42963;-81
2023/07/28 02:54:15;;;;;;;;;;;25.50;54.10;;;;;;5044364;28;43643;-82
2023/07/28 02:56:40;;;;;;;;;;;25.50;54.00;;;;;;5044379;28;42830;-81
2023/07/28 02:59:06;;;;;;;;;;;25.60;54.10;;;;;;5043959;28;44237;-81
2023/07/28 03:01:35;;;;;;;;;;;25.50;54.10;;;;;;5044521;28;42840;-78
2023/07/28 03:04:01;;;;;;;;;;;25.50;54.10;;;;;;5043584;28;43006;-80
2023/07/28 03:06:26;;;;;;;;;;;25.50;54.10;;;;;;5044662;28;42988;-82
2023/07/28 03:08:52;;;;;;;;;;;25.50;54.20;;;;;;5043359;28;42961;-80
2023/07/28 03:11:17;;;;;;;;;;;25.50;54.10;;;;;;5043543;28;42950;-80
2023/07/28 03:13:43;;;;;;;;;;;25.50;54.10;;;;;;5044150;28;43497;-79
2023/07/28 03:16:09;;;;;;;;;;;25.50;54.80;;;;;;5042621;28;43054;-82
2023/07/28 03:18:34;;;;;;;;;;;25.40;54.20;;;;;;5042929;28;43717;-82
2023/07/28 03:21:00;;;;;;;;;;;25.40;54.30;;;;;;5044295;28;42922;-80
2023/07/28 03:23:25;;;;;;;;;;;25.40;54.20;;;;;;5043849;28;43580;-78
2023/07/28 03:25:51;;;;;;;;;;;25.40;54.30;;;;;;5043360;28;42891;-81
2023/07/28 03:28:17;;;;;;;;;;;25.40;54.30;;;;;;5043643;28;43627;-81
2023/07/28 03:30:42;;;;;;;;;;;25.40;54.30;;;;;;5043884;28;42961;-78
2023/07/28 03:33:08;;;;;;;;;;;25.40;53.80;;;;;;5043573;28;44077;-80
2023/07/28 03:35:33;;;;;;;;;;;25.40;54.30;;;;;;5043595;28;42955;-81
2023/07/28 03:37:59;;;;;;;;;;;25.40;54.40;;;;;;5043712;28;43862;-81
2023/07/28 03:40:24;;;;;;;;;;;25.40;54.40;;;;;;5040996;28;42980;-81
2023/07/28 03:42:50;;;;;;;;;;;25.40;54.00;;;;;;5025858;28;44157;-82
2023/07/28 03:45:16;;;;;;;;;;;25.40;54.40;;;;;;5024601;28;43047;-81
2023/07/28 03:47:41;;;;;;;;;;;25.40;54.40;;;;;;5042979;28;43447;-81
2023/07/28 03:50:07;;;;;;;;;;;25.40;54.40;;;;;;5040444;28;42899;-81
2023/07/28 03:52:32;;;;;;;;;;;25.40;54.30;;;;;;5042521;28;43581;-82
2023/07/28 03:54:58;;;;;;;;;;;25.40;54.30;;;;;;5041490;28;43155;-79
2023/07/28 03:57:23;;;;;;;;;;;25.40;54.30;;;;;;5042384;28;43553;-80
2023/07/28 03:59:49;;;;;;;;;;;25.40;54.30;;;;;;5042885;28;42912;-82
2023/07/28 04:02:14;;;;;;;;;;;25.40;54.20;;;;;;5034531;28;43819;-82
2023/07/28 04:04:40;;;;;;;;;;;25.40;54.20;;;;;;5043073;28;42972;-81
2023/07/28 04:07:06;;;;;;;;;;;25.40;54.20;;;;;;5042951;28;44507;-81
2023/07/28 04:09:31;;;;;;;;;;;25.40;54.30;;;;;;5032265;28;43127;-79
2023/07/28 04:11:57;;;;;;;;;;;25.40;54.20;;;;;;5042255;28;43557;-81
2023/07/28 04:14:22;;;;;;;;;;;25.40;54.30;;;;;;5040361;28;43347;-82
2023/07/28 04:16:48;;;;;;;;;;;25.40;54.30;;;;;;5049479;28;43343;-81
2023/07/28 04:19:13;;;;;;;;;;;25.40;54.40;;;;;;5057276;28;43234;-81
2023/07/28 04:21:41;;;;;;;;;;;25.30;54.40;;;;;;5044871;28;43275;-81
2023/07/28 04:24:07;;;;;;;;;;;25.40;54.30;;;;;;5057383;28;43003;-82
2023/07/28 04:26:33;;;;;;;;;;;25.40;54.30;;;;;;5054368;28;43607;-82
2023/07/28 04:28:58;;;;;;;;;;;25.40;54.30;;;;;;5045514;28;43268;-81
2023/07/28 04:31:24;;;;;;;;;;;25.40;54.30;;;;;;5042942;28;43902;-84
2023/07/28 04:33:49;;;;;;;;;;;25.40;54.30;;;;;;5033200;28;43341;-81
2023/07/28 04:36:15;;;;;;;;;;;25.40;54.30;;;;;;5039530;28;43681;-82
2023/07/28 04:38:40;;;;;;;;;;;25.40;54.30;;;;;;5045244;28;43109;-81
2023/07/28 04:41:06;;;;;;;;;;;25.40;54.20;;;;;;5046524;28;42857;-80
2023/07/28 04:43:31;;;;;;;;;;;25.50;54.30;;;;;;5045920;28;43071;-78
2023/07/28 04:45:57;;;;;;;;;;;25.40;54.20;;;;;;5040239;28;43369;-80
2023/07/28 04:48:23;;;;;;;;;;;25.40;54.30;;;;;;5036839;28;43018;-80
2023/07/28 04:50:48;;;;;;;;;;;25.40;53.80;;;;;;5030852;28;42973;-77
2023/07/28 04:53:14;;;;;;;;;;;25.40;54.30;;;;;;5040733;28;42990;-79
2023/07/28 04:55:39;;;;;;;;;;;25.40;54.30;;;;;;5037891;28;44257;-80
2023/07/28 04:58:05;;;;;;;;;;;25.40;54.30;;;;;;5042856;28;43050;-81
2023/07/28 05:00:30;;;;;;;;;;;25.40;54.30;;;;;;5044258;28;42897;-80
2023/07/28 05:02:56;;;;;;;;;;;25.40;54.40;;;;;;5040788;28;43015;-80
2023/07/28 05:05:21;;;;;;;;;;;25.40;54.30;;;;;;5037242;28;43030;-77
2023/07/28 05:07:47;;;;;;;;;;;25.40;54.10;;;;;;5040240;28;44910;-80
2023/07/28 05:10:12;;;;;;;;;;;25.40;54.10;;;;;;5042730;28;42975;-81
2023/07/28 05:12:38;;;;;;;;;;;25.40;54.10;;;;;;5045966;28;43007;-80
2023/07/28 05:15:04;;;;;;;;;;;25.40;54.10;;;;;;5045013;28;43085;-80
2023/07/28 05:17:30;;;;;;;;;;;25.50;54.10;;;;;;5044804;28;43046;-80
2023/07/28 05:19:55;;;;;;;;;;;25.40;54.10;;;;;;5041498;28;43141;-81
2023/07/28 05:22:21;;;;;;;;;;;25.40;54.00;;;;;;5045095;28;43026;-81
2023/07/28 05:24:46;;;;;;;;;;;25.40;54.00;;;;;;5045214;28;44044;-80
2023/07/28 05:27:12;;;;;;;;;;;25.40;53.90;;;;;;5042988;28;43030;-80
2023/07/28 05:29:37;;;;;;;;;;;25.40;53.90;;;;;;5028602;28;43497;-81
2023/07/28 05:32:03;;;;;;;;;;;25.40;53.90;;;;;;5037835;28;43036;-81
2023/07/28 05:34:29;;;;;;;;;;;25.40;53.90;;;;;;5040937;28;42875;-81
2023/07/28 05:36:55;;;;;;;;;;;25.40;53.80;;;;;;5045831;28;43159;-82
2023/07/28 05:39:20;;;;;;;;;;;25.40;53.90;;;;;;5037120;28;43648;-81
2023/07/28 05:41:46;;;;;;;;;;;25.40;54.00;;;;;;5044947;28;43005;-81
2023/07/28 05:44:11;;;;;;;;;;;25.40;54.20;;;;;;5044968;28;42984;-81
2023/07/28 05:46:37;;;;;;;;;;;25.40;54.20;;;;;;5045213;28;43034;-81
2023/07/28 05:49:02;;;;;;;;;;;25.40;54.10;;;;;;5045160;28;43629;-81
2023/07/28 05:51:28;;;;;;;;;;;25.40;54.10;;;;;;5045384;28;43084;-80
2023/07/28 05:53:54;;;;;;;;;;;25.40;54.10;;;;;;5043362;28;43710;-78
2023/07/28 05:56:19;;;;;;;;;;;25.40;54.10;;;;;;5038180;28;43289;-83
2023/07/28 05:58:46;;;;;;;;;;;25.50;54.20;;;;;;5044712;28;43553;-82
2023/07/28 06:01:11;;;;;;;;;;;25.50;54.20;;;;;;5044647;28;43127;-82
2023/07/28 06:03:37;;;;;;;;;;;25.50;54.10;;;;;;5042390;28;42940;-82
2023/07/28 06:06:02;;;;;;;;;;;25.50;54.00;;;;;;5038373;28;43028;-81
2023/07/28 06:08:28;;;;;;;;;;;25.50;53.90;;;;;;5037516;28;42812;-83
2023/07/28 06:10:54;;;;;;;;;;;25.50;53.80;;;;;;5039102;28;43130;-81
2023/07/28 06:13:19;;;;;;;;;;;25.60;53.80;;;;;;5041120;28;42959;-80
2023/07/28 06:15:45;;;;;;;;;;;25.60;53.80;;;;;;5044647;28;42863;-82
2023/07/28 06:18:10;;;;;;;;;;;25.60;53.60;;;;;;5041715;28;43528;-81
2023/07/28 06:20:36;;;;;;;;;;;25.50;53.50;;;;;;5043255;28;42845;-81
2023/07/28 06:23:01;;;;;;;;;;;25.60;53.60;;;;;;5042403;28;42990;-83
2023/07/28 06:25:27;;;;;;;;;;;25.60;53.60;;;;;;5041039;28;42991;-81
2023/07/28 06:27:52;;;;;;;;;;;25.60;53.60;;;;;;5040952;28;43645;-81
2023/07/28 06:30:18;;;;;;;;;;;25.60;53.70;;;;;;5039926;28;42981;-80
2023/07/28 06:32:43;;;;;;;;;;;25.60;53.80;;;;;;5043856;28;43689;-83
2023/07/28 06:35:09;;;;;;;;;;;25.60;53.40;;;;;;5043832;28;43131;-83
2023/07/28 06:37:38;;;;;;;;;;;25.60;53.90;;;;;;5043584;28;43603;-82
2023/07/28 06:40:08;;;;;;;;;;;25.70;53.80;;;;;;5042499;28;42980;-80
2023/07/28 06:42:35;;;;;;;;;;;25.70;53.80;;;;;;5044534;28;44095;-83
2023/07/28 06:45:01;;;;;;;;;;;25.70;53.90;;;;;;5043862;28;42908;-83
2023/07/28 06:47:26;;;;;;;;;;;25.70;53.90;;;;;;5043575;28;43721;-80
2023/07/28 06:49:52;;;;;;;;;;;25.70;53.80;;;;;;5043478;28;42990;-83
2023/07/28 06:52:17;;;;;;;;;;;25.80;53.90;;;;;;5044038;28;43688;-82
2023/07/28 06:54:43;;;;;;;;;;;25.80;53.90;;;;;;5043997;28;42840;-82
2023/07/28 06:57:08;;;;;;;;;;;25.80;54.10;;;;;;5044125;28;42975;-81
2023/07/28 06:59:34;;;;;;;;;;;25.80;54.00;;;;;;5042316;28;43046;-83
2023/07/28 07:01:59;;;;;;;;;;;25.80;54.10;;;;;;5043602;28;42931;-83
2023/07/28 07:04:25;;;;;;;;;;;25.80;54.00;;;;;;5044446;28;44017;-83
2023/07/28 07:06:51;;;;;;;;;;;25.80;54.10;;;;;;5044421;28;43330;-84
2023/07/28 07:09:16;;;;;;;;;;;25.80;54.10;;;;;;5044505;28;43029;-83
2023/07/28 07:11:42;;;;;;;;;;;25.80;54.00;;;;;;5042450;28;44447;-84
2023/07/28 07:14:07;;;;;;;;;;;25.80;54.00;;;;;;5044289;28;42882;-79
2023/07/28 07:16:34;;;;;;;;;;;25.80;54.10;;;;;;5043895;28;44215;-83
2023/07/28 07:18:59;;;;;;;;;;;25.80;54.10;;;;;;5043904;28;43020;-83
2023/07/28 07:21:26;;;;;;;;;;;25.80;54.10;;;;;;5044080;28;43501;-84
2023/07/28 07:23:51;;;;;;;;;;;25.80;54.10;;;;;;5044276;28;42915;-82
2023/07/28 07:26:17;;;;;;;;;;;25.80;54.20;;;;;;5044280;28;42896;-83
2023/07/28 07:28:42;;;;;;;;;;;25.80;54.10;;;;;;5044030;28;42930;-83
2023/07/28 07:31:14;;;;;;;;;;;25.80;54.10;;;;;;5043349;28;43709;-82
2023/07/28 07:33:40;;;;;;;;;;;25.90;54.30;;;;;;5043761;28;43244;-83
2023/07/28 07:36:05;;;;;;;;;;;25.80;54.30;;;;;;5043610;28;42893;-83
2023/07/28 07:38:31;;;;;;;;;;;25.90;54.40;;;;;;5043664;28;42872;-83
2023/07/28 07:40:56;;;;;;;;;;;25.80;53.80;;;;;;5043841;28;44001;-83
2023/07/28 07:43:22;;;;;;;;;;;25.90;54.30;;;;;;5043391;28;42953;-83
2023/07/28 07:45:50;;;;;;;;;;;25.80;54.30;;;;;;5043575;28;43537;-82
2023/07/28 07:48:15;;;;;;;;;;;25.90;54.40;;;;;;5043490;28;43005;-79
2023/07/28 07:50:41;;;;;;;;;;;25.80;54.00;;;;;;5046464;28;43956;-84
2023/07/28 07:53:06;;;;;;;;;;;25.90;54.70;;;;;;5046987;28;43017;-83
2023/07/28 07:55:32;;;;;;;;;;;25.90;54.60;;;;;;5045861;28;43547;-82
2023/07/28 07:57:57;;;;;;;;;;;25.90;54.60;;;;;;5047384;28;43034;-84
2023/07/28 08:00:23;;;;;;;;;;;25.90;54.80;;;;;;5046817;28;43040;-80
2023/07/28 08:02:49;;;;;;;;;;;25.90;54.30;;;;;;5047050;28;43048;-84
2023/07/28 08:05:15;;;;;;;;;;;25.90;54.80;;;;;;5047035;28;43529;-82
2023/07/28 08:07:41;;;;;;;;;;;25.90;54.90;;;;;;5046775;28;42889;-82
2023/07/28 08:10:06;;;;;;;;;;;25.90;55.00;;;;;;5045733;28;44274;-84
2023/07/28 08:12:32;;;;;;;;;;;25.90;55.00;;;;;;5045471;28;42985;-82
2023/07/28 08:14:57;;;;;;;;;;;25.90;55.00;;;;;;5047612;28;43809;-82
2023/07/28 08:17:23;;;;;;;;;;;25.90;55.00;;;;;;5046341;28;42946;-83
2023/07/28 08:19:49;;;;;;;;;;;25.90;55.00;;;;;;5046560;28;43538;-79
2023/07/28 08:22:14;;;;;;;;;;;25.90;55.30;;;;;;5046071;28;43042;-83
2023/07/28 08:24:40;;;;;;;;;;;25.90;56.40;;;;;;5046766;28;43648;-84
2023/07/28 08:27:05;;;;;;;;;;;25.90;55.10;;;;;;5046044;28;42941;-82
2023/07/28 08:29:31;;;;;;;;;;;25.90;55.10;;;;;;5044681;28;44654;-81
2023/07/28 08:31:56;;;;;;;;;;;25.90;55.10;;;;;;5045618;28;43033;-78
2023/07/28 08:34:22;;;;;;;;;;;25.90;55.00;;;;;;5045848;28;43026;-80
2023/07/28 08:36:48;;;;;;;;;;;25.90;55.10;;;;;;5045851;28;42993;-83
2023/07/28 08:39:14;;;;;;;;;;;25.90;54.60;;;;;;5046681;28;42948;-79
2023/07/28 08:41:40;;;;;;;;;;;25.90;55.10;;;;;;5044085;28;43027;-83
2023/07/28 08:44:07;;;;;;;;;;;25.90;55.00;;;;;;5046348;28;43895;-82
2023/07/28 08:46:34;;;;;;;;;;;25.90;55.00;;;;;;5046175;28;43018;-83
2023/07/28 08:48:59;;;;;;;;;;;25.90;55.10;;;;;;5046674;28;42933;-83
2023/07/28 08:51:25;;;;;;;;;;;25.90;55.20;;;;;;5046464;28;43488;-84
2023/07/28 08:53:51;;;;;;;;;;;25.90;55.20;;;;;;5046101;28;43009;-84
2023/07/28 08:56:16;;;;;;;;;;;25.90;55.20;;;;;;5045612;28;43031;-83
2023/07/28 08:58:42;;;;;;;;;;;25.90;55.20;;;;;;5045044;28;44298;-85
2023/07/28 09:01:07;;;;;;;;;;;25.80;54.80;;;;;;5045236;28;43061;-83
2023/07/28 09:03:37;;;;;;;;;;;25.90;55.30;;;;;;5046176;28;42967;-83
2023/07/28 09:06:03;;;;;;;;;;;25.90;55.30;;;;;;5045536;28;43187;-82
2023/07/28 09:08:32;;;;;;;;;;;25.90;55.20;;;;;;5045574;28;42844;-84
2023/07/28 09:11:02;;;;;;;;;;;25.90;55.40;;;;;;5045612;28;43034;-81
2023/07/28 09:13:34;;;;;;;;;;;26.00;55.40;;;;;;5045640;28;42968;-83
2023/07/28 09:16:00;;;;;;;;;;;26.00;55.50;;;;;;5043593;28;42982;-82
2023/07/28 09:18:27;;;;;;;;;;;26.00;55.50;;;;;;5045013;28;43811;-81
2023/07/28 09:20:53;;;;;;;;;;;26.00;55.60;;;;;;5045895;28;42959;-81
2023/07/28 09:23:27;;;;;;;;;;;25.90;54.30;;;;;;5045254;28;43045;-82
2023/07/28 09:25:58;;;;;;;;;;;26.10;55.00;;;;;;5039709;28;43141;-80
2023/07/28 09:28:35;;;;;;;;;;;26.00;54.70;;;;;;5039023;28;44024;-84
2023/07/28 09:31:04;;;;;;;;;;;26.00;54.50;;;;;;5042472;28;42957;-82
2023/07/28 09:33:30;;;;;;;;;;;26.00;54.00;;;;;;5035833;28;45051;-82
2023/07/28 09:35:57;;;;;;;;;;;26.00;54.80;;;;;;5044375;28;42957;-81
2023/07/28 09:38:24;;;;;;;;;;;26.00;55.50;;;;;;5044464;28;43315;-82
2023/07/28 09:40:50;;;;;;;;;;;25.90;54.20;;;;;;5045486;28;42975;-82
2023/07/28 09:43:15;;;;;;;;;;;26.10;54.70;;;;;;5044228;28;43374;-81
2023/07/28 09:45:42;;;;;;;;;;;26.00;54.80;;;;;;5044404;28;43011;-81
2023/07/28 09:48:09;;;;;;;;;;;25.90;54.90;;;;;;5044676;28;43700;-80
2023/07/28 09:50:36;;;;;;;;;;;26.00;54.60;;;;;;5043910;28;42984;-79
2023/07/28 09:53:02;;;;;;;;;;;26.00;55.10;;;;;;5039869;28;43595;-81
2023/07/28 09:55:28;;;;;;;;;;;26.00;55.60;;;;;;5039763;28;43071;-79
2023/07/28 09:57:55;;;;;;;;;;;25.90;55.30;;;;;;5032581;28;43721;-79
2023/07/28 10:00:22;;;;;;;;;;;25.90;55.50;;;;;;5044764;28;43269;-80
2023/07/28 10:02:47;;;;;;;;;;;26.20;55.80;;;;;;5044734;28;42967;-80
2023/07/28 10:05:15;;;;;;;;;;;25.90;54.50;;;;;;5045379;28;43050;-80
2023/07/28 10:07:41;;;;;;;;;;;25.90;54.40;;;;;;5045042;28;43026;-80
2023/07/28 10:10:10;;;;;;;;;;;26.00;54.90;;;;;;5044589;28;43034;-80
2023/07/28 10:12:42;;;;;;;;;;;26.00;54.80;;;;;;5044310;28;43280;-80
2023/07/28 10:15:11;;;;;;;;;;;25.90;54.80;;;;;;5044716;28;42959;-80
2023/07/28 10:17:37;;;;;;;;;;;26.00;54.80;;;;;;5044397;28;43928;-81
2023/07/28 10:20:08;;;;;;;;;;;26.00;55.00;;;;;;5044038;28;43246;-80
2023/07/28 10:22:44;;;;;;;;;;;26.00;54.80;;;;;;5044154;28;44498;-80
2023/07/28 10:25:10;;;;;;;;;;;26.00;54.90;;;;;;5043570;28;42855;-80
2023/07/28 10:27:44;;;;;;;;;;;25.90;55.60;;;;;;5044348;28;42934;-81
2023/07/28 10:30:14;;;;;;;;;;;25.90;54.80;;;;;;5044966;28;43001;-80
2023/07/28 10:32:41;;;;;;;;;;;26.00;55.40;;;;;;5044651;28;43812;-80
2023/07/28 10:35:13;;;;;;;;;;;26.00;54.90;;;;;;5044663;28;43026;-80
2023/07/28 10:37:39;;;;;;;;;;;26.00;55.50;;;;;;5044386;28;44175;-80
2023/07/28 10:40:24;;;;;;;;;;;25.90;54.90;;;;;;5042555;28;42972;-81
2023/07/28 10:42:50;;;;;;;;;;;26.00;55.30;;;;;;5045007;28;43350;-80
2023/07/28 10:45:16;;;;;;;;;;;26.00;54.70;;;;;;5042504;28;42950;-80
2023/07/28 10:47:43;;;;;;;;;;;26.00;55.10;;;;;;5044481;28;43006;-80
2023/07/28 10:50:09;;;;;;;;;;;26.00;55.30;;;;;;5039719;28;43493;-80
2023/07/28 10:52:34;;;;;;;;;;;26.00;55.20;;;;;;5035118;28;44035;-81
2023/07/28 10:55:00;;;;;;;;;;;26.00;55.30;;;;;;5042091;28;44283;-81
2023/07/28 10:57:26;;;;;;;;;;;26.00;55.30;;;;;;5043345;28;43717;-82
2023/07/28 10:59:51;;;;;;;;;;;26.00;55.40;;;;;;5045168;28;42936;-82
2023/07/28 11:02:17;;;;;;;;;;;26.00;55.50;;;;;;5043466;28;43062;-81
2023/07/28 11:04:47;;;;;;;;;;;26.00;55.90;;;;;;5044043;28;43006;-81
2023/07/28 11:07:13;;;;;;;;;;;26.00;55.90;;;;;;5043478;28;43039;-82
2023/07/28 11:09:38;;;;;;;;;;;26.00;55.90;;;;;;5043610;28;42954;-81
2023/07/28 11:12:08;;;;;;;;;;;26.00;55.70;;;;;;5036917;28;43612;-82
2023/07/28 11:14:34;;;;;;;;;;;26.00;55.70;;;;;;5043255;28;42923;-82
2023/07/28 11:17:01;;;;;;;;;;;26.00;55.80;;;;;;5043496;28;43383;-81
2023/07/28 11:19:26;;;;;;;;;;;26.00;56.10;;;;;;5035867;28;43094;-81
2023/07/28 11:21:53;;;;;;;;;;;26.00;56.00;;;;;;5031032;28;43605;-80
2023/07/28 11:24:19;;;;;;;;;;;26.00;56.40;;;;;;5045146;28;43060;-81
2023/07/28 11:26:48;;;;;;;;;;;26.00;56.80;;;;;;5039933;28;43644;-82
2023/07/28 11:29:15;;;;;;;;;;;26.00;57.30;;;;;;5039291;28;43659;-82
2023/07/28 11:31:41;;;;;;;;;;;26.00;57.80;;;;;;5043550;28;43608;-81
2023/07/28 11:34:16;;;;;;;;;;;26.00;57.40;;;;;;5042481;28;42974;-82
2023/07/28 11:36:42;;;;;;;;;;;26.10;57.30;;;;;;5045576;28;43225;-82
2023/07/28 11:39:10;;;;;;;;;;;26.10;57.40;;;;;;5047894;28;42933;-82
2023/07/28 11:41:36;;;;;;;;;;;26.00;57.20;;;;;;5049252;28;42984;-83
2023/07/28 11:44:02;;;;;;;;;;;26.10;57.10;;;;;;5053188;28;42968;-82
2023/07/28 11:46:38;;;;;;;;;;;26.10;57.00;;;;;;5058338;28;42899;-81
2023/07/28 11:49:13;;;;;;;;;;;26.10;56.90;;;;;;5046915;28;42984;-82
2023/07/28 11:51:43;;;;;;;;;;;26.00;56.80;;;;;;5050526;28;43705;-81
2023/07/28 11:54:16;;;;;;;;;;;26.10;56.70;;;;;;5046922;28;42991;-81
2023/07/28 11:56:43;;;;;;;;;;;26.10;56.90;;;;;;5044774;28;43616;-80
2023/07/28 11:59:09;;;;;;;;;;;26.10;57.30;;;;;;5048602;28;42922;-81
2023/07/28 12:01:50;;;;;;;;;;;26.30;57.00;;;;;;5055213;28;43030;-81
2023/07/28 12:04:39;;;;;;;;;;;26.10;56.80;;;;;;5042032;28;43014;-88
2023/07/28 12:07:12;;;;;;;;;;;26.10;56.90;;;;;;5033733;28;43554;-83
2023/07/28 12:09:46;;;;;;;;;;;26.00;56.90;;;;;;5050465;28;42945;-82
2023/07/28 12:12:12;;;;;;;;;;;26.10;56.90;;;;;;5052969;28;43097;-82
2023/07/28 12:14:38;;;;;;;;;;;26.10;56.90;;;;;;5048569;28;42889;-82
2023/07/28 12:17:17;;;;;;;;;;;26.10;56.80;;;;;;5046846;28;42954;-82
2023/07/28 12:19:57;;;;;;;;;;;26.10;56.70;;;;;;5044616;28;42930;-81
2023/07/28 12:22:22;;;;;;;;;;;26.10;56.80;;;;;;5040217;28;43008;-82
2023/07/28 12:24:48;;;;;;;;;;;26.10;56.80;;;;;;5046749;28;42937;-80
2023/07/28 12:27:13;;;;;;;;;;;26.10;56.90;;;;;;5054044;28;44251;-80
2023/07/28 12:29:39;;;;;;;;;;;26.10;56.80;;;;;;5059297;28;42903;-80
2023/07/28 12:32:05;;;;;;;;;;;26.10;57.20;;;;;;5047744;28;43974;-80
2023/07/28 12:34:30;;;;;;;;;;;26.10;57.30;;;;;;5049788;28;42979;-81
2023/07/28 12:36:56;;;;;;;;;;;26.10;57.50;;;;;;5046102;28;43142;-82
2023/07/28 12:39:21;;;;;;;;;;;26.10;57.40;;;;;;5051497;28;43013;-87
2023/07/28 12:41:47;;;;;;;;;;;26.10;57.30;;;;;;5053005;28;43961;-86
2023/07/28 12:44:12;;;;;;;;;;;26.10;57.10;;;;;;5048748;28;43767;-81
2023/07/28 12:46:39;;;;;;;;;;;26.10;57.10;;;;;;5049225;28;43105;-84
2023/07/28 12:49:06;;;;;;;;;;;26.10;57.30;;;;;;5059830;28;42847;-86
2023/07/28 12:51:32;;;;;;;;;;;26.10;57.10;;;;;;5052507;28;43461;-82
2023/07/28 12:53:57;;;;;;;;;;;26.10;57.00;;;;;;5055745;28;43085;-84
2023/07/28 12:56:23;;;;;;;;;;;26.10;56.50;;;;;;5049339;28;43053;-81
2023/07/28 12:58:48;;;;;;;;;;;26.10;57.20;;;;;;5044706;28;43170;-87
2023/07/28 13:01:14;;;;;;;;;;;26.10;56.80;;;;;;5054608;28;44742;-82
2023/07/28 13:03:40;;;;;;;;;;;26.20;57.40;;;;;;5056638;28;42991;-86
2023/07/28 13:06:05;;;;;;;;;;;26.10;57.20;;;;;;5046552;28;44483;-86
2023/07/28 13:08:31;;;;;;;;;;;26.10;57.20;;;;;;5045282;28;43481;-81
2023/07/28 13:10:56;;;;;;;;;;;26.20;57.40;;;;;;5052206;28;43138;-81
2023/07/28 13:13:21;;;;;;;;;;;26.10;57.30;;;;;;5050537;28;42962;-83
2023/07/28 13:15:47;;;;;;;;;;;26.20;57.40;;;;;;5046715;28;43648;-81
2023/07/28 13:18:13;;;;;;;;;;;26.20;57.60;;;;;;5045295;28;42785;-81
2023/07/28 13:20:38;;;;;;;;;;;26.20;57.40;;;;;;5045743;28;43042;-85
2023/07/28 13:23:04;;;;;;;;;;;26.20;57.10;;;;;;5047432;28;42976;-87
2023/07/28 13:25:29;;;;;;;;;;;26.20;57.30;;;;;;5048455;28;43966;-86
2023/07/28 13:27:55;;;;;;;;;;;26.10;57.20;;;;;;5057558;28;43043;-87
2023/07/28 13:30:20;;;;;;;;;;;26.20;57.40;;;;;;5040830;28;44030;-85
2023/07/28 13:32:46;;;;;;;;;;;26.20;58.70;;;;;;5042212;28;42970;-82
2023/07/28 13:35:11;;;;;;;;;;;26.20;58.60;;;;;;5039314;28;43340;-85
2023/07/28 13:37:37;;;;;;;;;;;26.20;58.10;;;;;;5055553;28;42944;-86
2023/07/28 13:40:02;;;;;;;;;;;26.20;58.00;;;;;;5048637;28;42883;-86
2023/07/28 13:42:28;;;;;;;;;;;26.20;58.10;;;;;;5045356;28;43002;-86
2023/07/28 13:44:53;;;;;;;;;;;26.20;57.80;;;;;;5053558;28;43873;-80
2023/07/28 13:47:19;;;;;;;;;;;26.20;57.40;;;;;;5050976;28;43008;-81
2023/07/28 13:49:44;;;;;;;;;;;26.20;57.40;;;;;;5050166;28;44361;-81
2023/07/28 13:52:10;;;;;;;;;;;26.20;57.80;;;;;;5051910;28;42889;-81
2023/07/28 13:54:35;;;;;;;;;;;26.20;57.90;;;;;;5048183;28;43085;-81
2023/07/28 13:57:01;;;;;;;;;;;26.20;60.60;;;;;;5041762;28;43103;-80
2023/07/28 13:59:27;;;;;;;;;;;26.30;58.20;;;;;;5044107;28;44105;-80
2023/07/28 14:01:52;;;;;;;;;;;26.20;57.70;;;;;;5049822;28;42991;-79
2023/07/28 14:04:18;;;;;;;;;;;26.20;57.60;;;;;;5054565;28;42926;-79
2023/07/28 14:06:43;;;;;;;;;;;26.20;57.40;;;;;;5043328;28;43377;-80
2023/07/28 14:09:09;;;;;;;;;;;26.20;57.30;;;;;;5040393;28;43832;-79
2023/07/28 14:11:35;;;;;;;;;;;26.20;57.30;;;;;;5048528;28;42932;-80